• Join FlightAware (Why Join?)
  • Login
  • US Flag 
01:22AM EST


 

Airport Tracker/Info


-or-


 

Live Flight TrackerFlight Track Log ✈ ASQ6023 ✈ 01-May-2013 ✈ KORD - KOMA

Flight Track Log - Related Links

Times and Time Zones

All times are in EDT time to prevent confusion due to time zone crossing. See the ASQ6023 flight status page for this flight to view local times or setup timezone preferences in your user account.

Time Position Orientation Groundspeed Altitude Reporting Facility
EDT Latitude Longitude Course Direction KTS MPH feet Rate Location/Type
09:09AM 41.9333 -87.9167 228° Southwest 168 193 2,300  Level Chicago TRACON
09:10AM 41.9000 -87.9667 228° Southwest 198 228 4,200 1,800 Climbing Chicago TRACON
09:12AM 41.8497 -88.0694 237° Southwest 255 293 6,900 1,860 Climbing Chicago Center
09:13AM 41.8536 -88.1703 273° West 272 313 9,000 1,980 Climbing Chicago Center
09:14AM 41.8608 -88.2789 275° West 292 336 11,000 1,680 Climbing Chicago Center
09:15AM 41.8642 -88.4150 272° West 306 352 12,500 1,500 Climbing Chicago Center
09:16AM 41.8625 -88.5425 269° West 339 390 14,200 1,500 Climbing Chicago Center
09:17AM 41.8583 -88.6653 267° West 334 384 15,700 1,200 Climbing Chicago Center
09:18AM 41.8531 -88.7953 267° West 347 399 16,800 1,200 Climbing Chicago Center
09:19AM 41.8464 -88.9256 266° West 354 407 18,200 1,200 Climbing Chicago Center
09:20AM 41.8381 -89.0858 266° West 362 417 19,400 1,200 Climbing Chicago Center
09:21AM 41.8331 -89.2261 267° West 375 432 20,700 1,140 Climbing Chicago Center
09:22AM 41.8242 -89.3639 265° West 375 432 21,800 1,020 Climbing Chicago Center
09:23AM 41.8150 -89.5075 265° West 384 442 22,900 1,200 Climbing Chicago Center
09:24AM 41.8064 -89.6500 265° West 385 443 24,400 1,320 Climbing Chicago Center
09:25AM 41.7969 -89.8103 266° West 381 438 25,700 1,140 Climbing Chicago Center
09:26AM 41.7892 -89.9503 266° West 380 437 26,800 1,080 Climbing Chicago Center
09:27AM 41.7867 -90.0894 269° West 376 433 28,000 1,020 Climbing Chicago Center
09:28AM 41.7828 -90.2269 268° West 373 429 29,000 960 Climbing Chicago Center
09:30AM 41.7764 -90.3700 267° West 384 442 30,100 1,140 Climbing Chicago Center
09:31AM 41.7708 -90.5350 267° West 374 430 31,400 900 Climbing Chicago Center
09:32AM 41.7661 -90.6744 267° West 384 442 32,000 240 Climbing Chicago Center
09:33AM 41.7592 -90.8247 267° West 402 463 32,000  Level Chicago Center
09:34AM 41.7544 -90.9814 268° West 417 480 32,000  Level Chicago Center
09:35AM 41.7461 -91.1731 267° West 428 493 32,000  Level Chicago Center
09:36AM 41.7394 -91.3311 267° West 429 494 32,000  Level Chicago Center
09:37AM 41.7322 -91.4917 267° West 431 496 32,000  Level Chicago Center
09:38AM 41.7250 -91.6519 267° West 433 498 32,000  Level Chicago Center
09:39AM 41.7169 -91.8114 266° West 432 497 32,000  Level Chicago Center
09:40AM 41.7103 -91.9744 267° West 438 504 32,000  Level Chicago Center
09:41AM 41.7000 -92.1678 266° West 437 503 32,000  Level Chicago Center
09:42AM 41.6925 -92.3272 266° West 433 498 32,000  Level Chicago Center
09:43AM 41.6839 -92.4906 266° West 439 505 32,000  Level Chicago Center
09:44AM 41.6753 -92.6514 266° West 437 503 32,000  Level Chicago Center
09:44AM 41.6708 -92.7183 265° West 437 503 32,000  Level Minneapolis Center
09:45AM 41.6600 -92.9092 266° West 435 501 32,000  Level Minneapolis Center
09:46AM 41.6514 -93.0681 266° West 435 501 32,000  Level Minneapolis Center
09:48AM 41.6414 -93.2289 265° West 435 501 32,000  Level Minneapolis Center
09:49AM 41.6317 -93.3889 265° West 436 502 32,000  Level Minneapolis Center
09:50AM 41.6233 -93.5442 266° West 432 497 32,000 -120 Level Minneapolis Center
09:51AM 41.6139 -93.7031 266° West 432 497 31,800 -720 Descending Minneapolis Center
09:52AM 41.6017 -93.8928 265° West 432 497 30,600 -1,080 Descending Minneapolis Center
09:53AM 41.5911 -94.0503 265° West 432 497 29,700 -960 Descending Minneapolis Center
09:54AM 41.5811 -94.2111 265° West 437 503 28,700 -1,020 Descending Minneapolis Center
09:55AM 41.5664 -94.3828 264° West 436 502 27,700 -1,500 Descending Minneapolis Center
09:56AM 41.5561 -94.5422 265° West 434 499 25,700 -2,400 Descending Minneapolis Center
09:57AM 41.5439 -94.6992 264° West 427 491 22,800 -2,880 Descending Minneapolis Center
09:58AM 41.5339 -94.8467 265° West 403 464 19,800 -2,760 Descending Minneapolis Center
09:59AM 41.5344 -95.0031 270° West 368 423 17,300 -2,340 Descending Minneapolis Center
09:59AM 41.5286 -95.0678 263° West 369 425 16,400 -1,440 Descending Minneapolis Center
10:00AM 41.5133 -95.1200 249° West 369 425 15,800 -1,740 Descending Minneapolis Center
10:00AM 41.5119 -95.2150 269° West 347 399 14,500 -2,100 Descending Minneapolis Center
10:01AM 41.5008 -95.2450 244° Southwest 350 403 13,700 -2,580 Descending Minneapolis Center
10:02AM 41.4633 -95.3450 243° Southwest 334 384 10,700 -2,340 Descending Minneapolis Center
10:02AM 41.4275 -95.4092 233° Southwest 266 306 9,900 -1,500 Descending Minneapolis Center
10:03AM 41.4006 -95.4319 212° Southwest 290 334 9,200 -1,860 Descending Minneapolis Center
10:04AM 41.3722 -95.4856 235° Southwest 240 276 7,900 -1,800 Descending Minneapolis Center
10:04AM 41.3533 -95.4978 206° Southwest 265 305 7,400 -1,620 Descending Minneapolis Center
10:05AM 41.3242 -95.5497 233° Southwest 240 276 6,300 -1,500 Descending Minneapolis Center
10:05AM 41.3067 -95.5625 209° Southwest 251 289 5,900 -1,320 Descending Minneapolis Center
10:05AM 41.2739 -95.6086 227° Southwest 273 314 5,100 -1,200 Descending Minneapolis Center
10:06AM 41.2436 -95.6236 200° South 269 310 4,700 -1,140 Descending Minneapolis Center
10:06AM 41.1997 -95.6589 211° Southwest 304 350 4,000 -1,080 Descending Minneapolis Center
10:07AM 41.1703 -95.6758 203° Southwest 288 331 3,600 -900 Descending Minneapolis Center
10:08AM 41.1500 -95.7258 242° Southwest 264 304 3,100 -600 Descending Minneapolis Center
10:08AM 41.1592 -95.7497 297° West 258 297 3,000 -120 Descending Minneapolis Center
10:09AM 41.1847 -95.7772 321° Northwest 166 191 3,000  Level Minneapolis Center
10:09AM 41.1989 -95.7911 324° Northwest 209 241 3,000 -300 Level Minneapolis Center
10:10AM 41.2253 -95.8167 324° Northwest 173 199 2,700 -600 Descending Minneapolis Center
10:10AM 41.2381 -95.8289 324° Northwest 188 216 2,400 -720 Descending Minneapolis Center
10:11AM 41.2544 -95.8494 317° Northwest 125 144 2,000 -720 Descending Minneapolis Center
10:11AM 41.2675 -95.8572 336° Northwest 160 184 1,700 -660 Descending Minneapolis Center
10:12AM 41.2978 -95.8850 325° Northwest 142 163 1,000 -720 Descending Minneapolis Center
10:14AM 41.3000 -95.8833 246° West  Level FlightAware Approximate